createdAt,value
2023-02-11T00:00:17.435Z,14.20
2023-02-11T00:02:46.781Z,17.77
2023-02-11T00:05:14.393Z,20.63
2023-02-11T00:07:40.995Z,16.27
2023-02-11T00:10:07.991Z,17.08
2023-02-11T00:12:35.095Z,19.93
2023-02-11T00:15:01.711Z,18.58
2023-02-11T00:17:28.282Z,21.45
2023-02-11T00:19:54.855Z,12.35
2023-02-11T00:22:21.478Z,13.80
2023-02-11T00:24:48.058Z,14.75
2023-02-11T00:27:14.606Z,14.48
2023-02-11T00:29:41.173Z,19.10
2023-02-11T00:32:08.992Z,16.25
2023-02-11T00:37:02.530Z,16.33
2023-02-11T00:39:29.118Z,18.33
2023-02-11T00:41:55.751Z,20.73
2023-02-11T00:44:22.323Z,15.18
2023-02-11T00:46:48.851Z,17.05
2023-02-11T00:49:15.783Z,9.18
2023-02-11T00:51:42.344Z,13.67
2023-02-11T00:54:08.934Z,11.23
2023-02-11T00:56:35.566Z,17.73
2023-02-11T00:59:02.090Z,12.40
2023-02-11T01:01:28.734Z,15.98
2023-02-11T01:03:55.296Z,14.93
2023-02-11T01:06:23.060Z,15.48
2023-02-11T01:08:49.607Z,18.42
2023-02-11T01:11:17.679Z,13.48
2023-02-11T01:13:45.284Z,18.77
2023-02-11T01:16:12.040Z,19.23
2023-02-11T01:18:38.628Z,17.80
2023-02-11T01:21:05.305Z,19.63
2023-02-11T01:23:31.900Z,8.98
2023-02-11T01:25:58.734Z,14.07
2023-02-11T01:28:29.584Z,14.65
2023-02-11T01:30:56.313Z,16.83
2023-02-11T01:33:23.464Z,19.70
2023-02-11T01:35:50.743Z,20.83
2023-02-11T01:38:25.183Z,13.25
2023-02-11T01:40:52.775Z,14.73
2023-02-11T01:43:19.528Z,15.13
2023-02-11T01:45:49.465Z,12.18
2023-02-11T01:48:19.316Z,16.45
2023-02-11T01:50:50.418Z,12.75
2023-02-11T01:53:36.063Z,10.95
2023-02-11T01:56:21.812Z,14.38
2023-02-11T01:58:49.068Z,15.77
2023-02-11T02:01:18.134Z,12.85
2023-02-11T02:03:45.379Z,17.63
2023-02-11T02:06:34.631Z,10.38
2023-02-11T02:09:01.121Z,14.30
2023-02-11T02:13:55.547Z,13.80
2023-02-11T02:16:25.007Z,13.23
2023-02-11T02:18:54.702Z,16.30
2023-02-11T02:21:24.029Z,15.05
2023-02-11T02:23:58.056Z,9.25
2023-02-11T02:26:43.364Z,8.80
2023-02-11T02:29:15.760Z,11.95
2023-02-11T02:32:05.368Z,15.82
2023-02-11T02:34:44.183Z,9.98
2023-02-11T02:37:15.181Z,10.18
2023-02-11T02:39:42.241Z,12.82
2023-02-11T02:42:09.306Z,8.90
2023-02-11T02:44:35.927Z,14.20
2023-02-11T02:47:02.637Z,13.35
2023-02-11T02:49:29.283Z,13.32
2023-02-11T02:52:04.770Z,7.25
2023-02-11T02:54:33.998Z,11.70
2023-02-11T02:57:00.510Z,11.20
2023-02-11T02:59:30.059Z,13.90
2023-02-11T03:02:17.359Z,19.77
2023-02-11T03:05:13.065Z,11.30
2023-02-11T03:07:45.585Z,15.13
2023-02-11T03:10:27.144Z,16.55
2023-02-11T03:12:54.415Z,15.73
2023-02-11T03:15:22.923Z,20.77
2023-02-11T03:17:51.440Z,11.43
2023-02-11T03:20:19.769Z,15.63
2023-02-11T03:22:49.546Z,11.98
2023-02-11T03:25:16.161Z,12.13
2023-02-11T03:28:08.817Z,20.17
2023-02-11T03:30:39.052Z,14.23
2023-02-11T03:33:08.721Z,14.35
2023-02-11T03:35:37.986Z,6.15
2023-02-11T03:38:24.804Z,11.98
2023-02-11T03:40:52.168Z,7.50
2023-02-11T03:43:21.133Z,18.80
2023-02-11T03:45:48.780Z,19.90
2023-02-11T03:48:22.482Z,17.90
2023-02-11T03:50:50.953Z,15.88
2023-02-11T03:53:17.801Z,17.52
2023-02-11T03:55:45.620Z,8.55
2023-02-11T03:58:12.234Z,13.93
2023-02-11T04:00:41.058Z,12.18
2023-02-11T04:03:08.144Z,9.75
2023-02-11T04:05:34.898Z,17.27
2023-02-11T04:08:01.621Z,11.68
2023-02-11T04:10:28.213Z,17.63
2023-02-11T04:12:54.728Z,16.05
2023-02-11T04:15:22.952Z,14.77
2023-02-11T04:17:49.492Z,13.60
2023-02-11T04:20:16.096Z,11.35
2023-02-11T04:22:42.626Z,14.13
2023-02-11T04:25:09.447Z,11.75
2023-02-11T04:27:36.193Z,23.35
2023-02-11T04:30:02.762Z,12.00
2023-02-11T04:32:29.299Z,10.13
2023-02-11T04:34:55.918Z,14.77
2023-02-11T04:37:22.445Z,19.80
2023-02-11T04:39:49.040Z,9.82
2023-02-11T04:42:15.754Z,8.73
2023-02-11T04:44:42.279Z,18.95
2023-02-11T04:47:08.813Z,15.98
2023-02-11T04:49:35.416Z,8.60
2023-02-11T04:52:01.972Z,13.93
2023-02-11T04:54:28.510Z,15.50
2023-02-11T04:56:55.113Z,16.58
2023-02-11T04:59:21.654Z,14.35
2023-02-11T05:01:48.231Z,7.38
2023-02-11T05:04:14.996Z,12.85
2023-02-11T05:06:41.539Z,13.98
2023-02-11T05:09:08.188Z,18.80
2023-02-11T05:11:36.680Z,23.10
2023-02-11T05:14:03.216Z,16.48
2023-02-11T05:16:29.768Z,22.10
2023-02-11T05:18:56.573Z,19.52
2023-02-11T05:21:23.129Z,15.75
2023-02-11T05:23:49.874Z,14.38
2023-02-11T05:26:16.452Z,15.75
2023-02-11T05:28:43.278Z,18.50
2023-02-11T05:31:10.269Z,11.73
2023-02-11T05:33:37.156Z,21.40
2023-02-11T05:36:05.443Z,21.75
2023-02-11T05:38:32.162Z,22.23
2023-02-11T05:40:58.749Z,19.73
2023-02-11T05:43:25.410Z,10.02
2023-02-11T05:45:52.414Z,13.15
2023-02-11T05:48:19.111Z,14.98
2023-02-11T05:50:45.694Z,15.73
2023-02-11T05:53:12.271Z,18.98
2023-02-11T05:55:39.010Z,20.02
2023-02-11T05:58:05.839Z,26.40
2023-02-11T06:00:32.465Z,16.02
2023-02-11T06:02:59.136Z,13.75
2023-02-11T06:05:26.061Z,22.10
2023-02-11T06:07:52.927Z,22.47
2023-02-11T06:10:19.498Z,23.20
2023-02-11T06:12:46.154Z,18.30
2023-02-11T06:15:12.719Z,25.60
2023-02-11T06:17:39.326Z,16.02
2023-02-11T06:20:06.884Z,20.15
2023-02-11T06:22:34.926Z,24.35
2023-02-11T06:25:02.379Z,23.75
2023-02-11T06:27:29.350Z,22.65
2023-02-11T06:29:55.941Z,29.70
2023-02-11T06:32:42.333Z,23.48
2023-02-11T06:35:11.741Z,24.20
2023-02-11T06:37:38.712Z,19.95
2023-02-11T06:40:05.568Z,19.77
2023-02-11T06:42:32.151Z,24.13
2023-02-11T06:44:58.666Z,26.80
2023-02-11T06:47:25.309Z,18.63
2023-02-11T06:49:51.856Z,29.70
2023-02-11T06:52:18.471Z,29.15
2023-02-11T06:54:44.988Z,27.73
2023-02-11T06:57:11.711Z,30.42
2023-02-11T06:59:38.214Z,27.13
2023-02-11T07:02:05.065Z,25.13
2023-02-11T07:04:31.759Z,30.43
2023-02-11T07:06:58.300Z,28.10
2023-02-11T07:09:24.817Z,28.73
2023-02-11T07:11:51.379Z,33.42
2023-02-11T07:14:17.974Z,36.50
2023-02-11T07:16:44.539Z,31.92
2023-02-11T07:19:11.029Z,39.50
2023-02-11T07:21:37.626Z,29.00
2023-02-11T07:24:10.735Z,35.08
2023-02-11T07:26:37.699Z,34.70
2023-02-11T07:29:04.233Z,38.17
2023-02-11T07:31:31.178Z,34.88
2023-02-11T07:33:59.971Z,35.85
2023-02-11T07:36:27.194Z,34.33
2023-02-11T07:38:53.757Z,47.35
2023-02-11T07:41:21.612Z,43.78
2023-02-11T07:46:18.383Z,35.50
2023-02-11T07:48:45.180Z,48.90
2023-02-11T07:51:15.957Z,37.17
2023-02-11T07:53:42.675Z,45.70
2023-02-11T07:56:10.084Z,47.13
2023-02-11T07:58:37.083Z,29.65
2023-02-11T08:01:08.041Z,40.23
2023-02-11T08:03:35.485Z,54.67
2023-02-11T08:06:08.747Z,50.25
2023-02-11T08:08:35.543Z,62.85
2023-02-11T08:11:09.245Z,59.47
2023-02-11T08:13:36.194Z,65.90
2023-02-11T08:16:03.412Z,50.63
2023-02-11T08:18:30.390Z,49.92
2023-02-11T08:20:56.946Z,65.65
2023-02-11T08:23:23.489Z,48.58
2023-02-11T08:25:50.150Z,44.17
2023-02-11T08:28:16.712Z,45.08
2023-02-11T08:30:43.297Z,51.53
2023-02-11T08:33:09.853Z,59.65
2023-02-11T08:35:37.291Z,68.70
2023-02-11T08:38:03.857Z,57.35
2023-02-11T08:40:30.389Z,87.38
2023-02-11T08:42:56.969Z,59.28
2023-02-11T08:45:23.618Z,63.75
2023-02-11T08:47:50.150Z,63.33
2023-02-11T08:50:16.682Z,79.25
2023-02-11T08:52:44.213Z,67.15
2023-02-11T08:55:10.777Z,76.22
2023-02-11T08:57:37.314Z,57.08
2023-02-11T09:00:04.549Z,77.53
2023-02-11T09:02:31.198Z,54.47
2023-02-11T09:04:57.772Z,63.45
2023-02-11T09:07:24.329Z,47.30
2023-02-11T09:09:50.848Z,60.60
2023-02-11T09:12:17.400Z,66.55
2023-02-11T09:14:44.090Z,48.13
2023-02-11T09:17:10.646Z,61.97
2023-02-11T09:19:37.206Z,46.13
2023-02-11T09:22:03.722Z,56.78
2023-02-11T09:24:30.246Z,57.30
2023-02-11T09:26:56.797Z,48.95
2023-02-11T09:29:23.554Z,46.90
2023-02-11T09:31:50.485Z,57.75
2023-02-11T09:34:17.111Z,64.93
2023-02-11T09:36:43.664Z,52.30
2023-02-11T09:39:13.243Z,64.35
2023-02-11T09:41:43.095Z,34.50
2023-02-11T09:44:17.519Z,48.20
2023-02-11T09:46:47.993Z,59.55
2023-02-11T09:49:19.903Z,62.03
2023-02-11T09:51:52.391Z,63.42
2023-02-11T09:54:37.281Z,50.97
2023-02-11T09:57:04.349Z,62.20
2023-02-11T09:59:30.904Z,60.83
2023-02-11T10:02:02.581Z,50.33
2023-02-11T10:04:47.506Z,52.53
2023-02-11T10:07:27.427Z,69.13
2023-02-11T10:09:53.914Z,35.72
2023-02-11T10:12:20.436Z,67.82
2023-02-11T10:14:58.899Z,55.45
2023-02-11T10:17:40.472Z,50.88
2023-02-11T10:20:25.727Z,62.92
2023-02-11T10:22:57.827Z,64.95
2023-02-11T10:25:26.116Z,57.42
2023-02-11T10:27:54.074Z,59.38
2023-02-11T10:33:09.752Z,67.75
2023-02-11T10:35:37.023Z,69.13
2023-02-11T10:38:03.551Z,74.38
2023-02-11T10:40:31.448Z,70.25
2023-02-11T10:45:32.184Z,59.95
2023-02-11T10:47:59.619Z,50.67
2023-02-11T10:50:27.970Z,68.78
2023-02-11T10:53:10.942Z,58.60
2023-02-11T10:55:37.629Z,54.00
2023-02-11T10:58:04.765Z,64.97
2023-02-11T11:00:39.078Z,66.45
2023-02-11T11:03:14.717Z,59.85
2023-02-11T11:05:49.631Z,53.17
2023-02-11T11:08:16.444Z,67.68
2023-02-11T11:10:44.378Z,71.53
2023-02-11T11:15:37.376Z,65.97
2023-02-11T11:18:20.786Z,45.92
2023-02-11T11:21:01.942Z,71.25
2023-02-11T11:23:30.045Z,65.60
2023-02-11T11:26:15.505Z,60.85
2023-02-11T11:28:42.083Z,66.45
2023-02-11T11:31:15.892Z,72.45
2023-02-11T11:33:44.570Z,59.85
2023-02-11T11:36:12.415Z,60.05
2023-02-11T11:38:48.695Z,67.40
2023-02-11T11:41:23.826Z,61.33
2023-02-11T11:43:57.262Z,62.47
2023-02-11T11:46:26.369Z,63.28
2023-02-11T11:48:54.591Z,50.22
2023-02-11T11:51:21.689Z,58.35
2023-02-11T11:53:54.076Z,53.47
2023-02-11T11:56:25.386Z,63.85
2023-02-11T11:58:53.065Z,62.05
2023-02-11T12:01:28.532Z,61.58
2023-02-11T12:03:57.826Z,61.40
2023-02-11T12:06:24.352Z,63.67
2023-02-11T12:09:13.902Z,59.20
2023-02-11T12:12:15.748Z,62.38
2023-02-11T12:15:01.187Z,64.18
2023-02-11T12:17:30.440Z,89.72
2023-02-11T12:20:07.877Z,71.60
2023-02-11T12:22:42.744Z,57.97
2023-02-11T12:25:29.115Z,64.57
2023-02-11T12:28:07.897Z,65.22
2023-02-11T12:30:34.535Z,64.50
2023-02-11T12:33:04.837Z,62.90
2023-02-11T12:35:43.538Z,70.03
2023-02-11T12:38:39.386Z,70.05
2023-02-11T12:41:44.461Z,66.40
2023-02-11T12:44:17.649Z,65.43
2023-02-11T12:46:49.219Z,68.78
2023-02-11T12:49:21.528Z,58.58
2023-02-11T12:51:50.838Z,67.30
2023-02-11T12:54:24.051Z,71.80
2023-02-11T12:56:53.358Z,65.00
2023-02-11T12:59:40.279Z,64.07
2023-02-11T13:02:14.805Z,60.47
2023-02-11T13:04:43.254Z,62.55
2023-02-11T13:07:14.267Z,60.03
2023-02-11T13:09:45.731Z,62.28
2023-02-11T13:12:32.024Z,64.50
2023-02-11T13:15:01.800Z,59.90
2023-02-11T13:17:40.955Z,58.00
2023-02-11T13:20:26.021Z,69.50
2023-02-11T13:23:04.623Z,63.00
2023-02-11T13:25:40.316Z,59.33
2023-02-11T13:28:18.285Z,58.17
2023-02-11T13:30:51.661Z,63.20
2023-02-11T13:33:20.823Z,65.72
2023-02-11T13:35:56.259Z,50.83
2023-02-11T13:38:23.934Z,56.72
2023-02-11T13:40:59.368Z,63.28
2023-02-11T13:43:28.903Z,61.17
2023-02-11T13:46:00.046Z,57.47
2023-02-11T13:48:31.009Z,57.75
2023-02-11T13:51:10.632Z,59.17
2023-02-11T13:53:51.619Z,61.15
2023-02-11T13:56:29.214Z,60.17
2023-02-11T13:58:56.463Z,62.75
2023-02-11T14:01:42.225Z,62.10
2023-02-11T14:04:41.422Z,66.65
2023-02-11T14:07:45.202Z,55.30
2023-02-11T14:10:30.725Z,72.43
2023-02-11T14:13:18.586Z,66.35
2023-02-11T14:15:46.181Z,58.92
2023-02-11T14:18:31.516Z,73.00
2023-02-11T14:21:13.246Z,68.30
2023-02-11T14:23:40.436Z,64.20
2023-02-11T14:26:20.089Z,60.17
2023-02-11T14:29:01.560Z,62.40
2023-02-11T14:31:31.105Z,56.47
2023-02-11T14:34:12.742Z,63.85
2023-02-11T14:37:08.461Z,55.08
2023-02-11T14:39:34.994Z,60.72
2023-02-11T14:42:02.360Z,62.03
2023-02-11T14:44:30.519Z,59.88
2023-02-11T14:46:58.048Z,59.78
2023-02-11T14:49:27.378Z,64.05
2023-02-11T14:51:55.990Z,54.72
2023-02-11T14:54:25.217Z,51.70
2023-02-11T14:57:08.638Z,52.53
2023-02-11T14:59:35.376Z,58.25
2023-02-11T15:02:01.950Z,56.08
2023-02-11T15:04:32.795Z,57.80
2023-02-11T15:07:03.330Z,54.83
2023-02-11T15:09:33.774Z,54.10
2023-02-11T15:12:00.378Z,53.45
2023-02-11T15:14:30.369Z,54.40
2023-02-11T15:16:58.845Z,52.60
2023-02-11T15:19:34.545Z,44.10
2023-02-11T15:22:01.932Z,59.92
2023-02-11T15:24:28.538Z,65.55
2023-02-11T15:27:14.579Z,46.72
2023-02-11T15:29:50.630Z,50.55
2023-02-11T15:32:18.552Z,66.65
2023-02-11T15:34:46.106Z,54.83
2023-02-11T15:37:24.085Z,52.05
2023-02-11T15:39:50.737Z,49.28
2023-02-11T15:42:18.679Z,57.55
2023-02-11T15:47:21.544Z,52.78
2023-02-11T15:49:49.002Z,49.80
2023-02-11T15:52:22.108Z,54.83
2023-02-11T15:54:49.003Z,48.63
2023-02-11T15:57:16.392Z,56.40
2023-02-11T15:59:46.330Z,97.70
2023-02-11T16:02:18.808Z,55.90
2023-02-11T16:04:53.561Z,53.78
2023-02-11T16:07:39.562Z,53.67
2023-02-11T16:10:23.829Z,117.78
2023-02-11T16:12:54.533Z,67.75
2023-02-11T16:15:33.263Z,54.58
2023-02-11T16:18:00.665Z,79.07
2023-02-11T16:20:27.149Z,65.18
2023-02-11T16:22:53.970Z,81.63
2023-02-11T16:25:21.560Z,57.67
2023-02-11T16:27:52.035Z,46.95
2023-02-11T16:30:23.392Z,57.28
2023-02-11T16:32:50.113Z,50.38
2023-02-11T16:35:16.666Z,56.42
2023-02-11T16:37:43.201Z,55.13
2023-02-11T16:40:11.960Z,56.70
2023-02-11T16:42:38.581Z,52.72
2023-02-11T16:45:05.336Z,58.10
2023-02-11T16:47:32.094Z,63.75
2023-02-11T16:49:58.712Z,61.15
2023-02-11T16:52:25.550Z,57.00
2023-02-11T16:54:52.094Z,65.47
2023-02-11T16:57:23.113Z,60.42
2023-02-11T16:59:50.303Z,53.42
2023-02-11T17:02:23.793Z,61.00
2023-02-11T17:04:51.142Z,54.65
2023-02-11T17:07:17.737Z,55.17
2023-02-11T17:09:44.283Z,55.28
2023-02-11T17:12:10.814Z,58.58
2023-02-11T17:14:37.380Z,52.22
2023-02-11T17:17:03.942Z,52.00
2023-02-11T17:19:30.718Z,55.53
2023-02-11T17:21:57.246Z,56.83
2023-02-11T17:24:23.877Z,55.28
2023-02-11T17:26:50.503Z,57.90
2023-02-11T17:29:18.291Z,59.30
2023-02-11T17:31:45.013Z,60.83
2023-02-11T17:34:11.941Z,72.75
2023-02-11T17:36:38.570Z,380.67
2023-02-11T17:39:07.788Z,63.15
2023-02-11T17:41:35.059Z,67.38
2023-02-11T17:44:01.613Z,59.67
2023-02-11T17:46:28.684Z,67.45
2023-02-11T17:48:55.865Z,58.50
2023-02-11T17:51:36.318Z,55.15
2023-02-11T17:54:04.489Z,61.13
2023-02-11T17:56:34.348Z,59.00
2023-02-11T17:59:02.487Z,67.75
2023-02-11T18:01:30.078Z,55.97
2023-02-11T18:03:56.779Z,63.10
2023-02-11T18:06:23.660Z,88.90
2023-02-11T18:08:50.212Z,65.70
2023-02-11T18:11:16.818Z,65.63
2023-02-11T18:13:43.891Z,72.65
2023-02-11T18:16:15.577Z,67.13
2023-02-11T18:18:43.152Z,58.58
2023-02-11T18:21:12.997Z,59.05
2023-02-11T18:23:39.547Z,66.97
2023-02-11T18:26:10.181Z,67.60
2023-02-11T18:28:37.280Z,68.20
2023-02-11T18:31:04.257Z,68.68
2023-02-11T18:33:30.928Z,62.63
2023-02-11T18:35:57.764Z,59.15
2023-02-11T18:38:24.865Z,53.75
2023-02-11T18:40:52.388Z,59.90
2023-02-11T18:43:21.762Z,56.53
2023-02-11T18:45:48.753Z,55.70
2023-02-11T18:48:15.485Z,51.17
2023-02-11T18:50:46.029Z,61.40
2023-02-11T18:53:13.074Z,62.45
2023-02-11T18:55:40.270Z,58.80
2023-02-11T18:58:07.014Z,56.20
2023-02-11T19:00:34.487Z,56.42
2023-02-11T19:03:01.139Z,48.88
2023-02-11T19:05:29.986Z,55.08
2023-02-11T19:07:56.689Z,63.20
2023-02-11T19:10:23.878Z,76.30
2023-02-11T19:12:53.215Z,65.95
2023-02-11T19:15:19.786Z,55.67
2023-02-11T19:17:46.326Z,61.33
2023-02-11T19:20:12.861Z,56.90
2023-02-11T19:22:39.394Z,55.75
2023-02-11T19:25:07.235Z,58.65
2023-02-11T19:27:33.790Z,60.88
2023-02-11T19:30:00.337Z,59.00
2023-02-11T19:32:26.863Z,62.65
2023-02-11T19:34:53.709Z,58.13
2023-02-11T19:37:20.220Z,53.38
2023-02-11T19:39:46.847Z,54.97
2023-02-11T19:42:13.466Z,53.13
2023-02-11T19:44:40.164Z,56.33
2023-02-11T19:47:06.980Z,47.92
2023-02-11T19:49:33.727Z,46.38
2023-02-11T19:52:00.277Z,52.97
2023-02-11T19:54:27.178Z,50.15
2023-02-11T19:56:53.784Z,53.22
2023-02-11T19:59:20.654Z,47.92
2023-02-11T20:01:49.038Z,61.35
2023-02-11T20:04:16.613Z,58.92
2023-02-11T20:06:43.252Z,56.78
2023-02-11T20:09:12.772Z,56.05
2023-02-11T20:11:39.370Z,52.25
2023-02-11T20:14:06.942Z,42.17
2023-02-11T20:16:47.561Z,59.47
2023-02-11T20:19:18.227Z,70.93
2023-02-11T20:21:47.095Z,54.72
2023-02-11T20:24:14.068Z,53.20
2023-02-11T20:26:42.433Z,52.30
2023-02-11T20:29:09.333Z,63.25
2023-02-11T20:31:36.000Z,56.78
2023-02-11T20:34:02.709Z,60.40
2023-02-11T20:36:32.001Z,64.05
2023-02-11T20:38:59.299Z,59.97
2023-02-11T20:41:28.106Z,69.13
2023-02-11T20:43:55.618Z,63.28
2023-02-11T20:46:23.695Z,72.10
2023-02-11T20:48:51.037Z,61.53
2023-02-11T20:51:19.164Z,69.45
2023-02-11T20:53:48.851Z,67.22
2023-02-11T20:56:16.969Z,63.53
2023-02-11T20:58:43.570Z,68.65
2023-02-11T21:01:13.931Z,65.85
2023-02-11T21:03:43.797Z,69.07
2023-02-11T21:06:11.447Z,62.22
2023-02-11T21:08:38.318Z,58.35
2023-02-11T21:11:08.529Z,60.90
2023-02-11T21:13:38.845Z,70.15
2023-02-11T21:16:05.830Z,64.10
2023-02-11T21:18:32.690Z,60.87
2023-02-11T21:20:59.635Z,71.57
2023-02-11T21:23:26.610Z,63.37
2023-02-11T21:25:53.733Z,60.03
2023-02-11T21:28:25.988Z,67.47
2023-02-11T21:30:53.896Z,65.95
2023-02-11T21:35:47.199Z,63.92
2023-02-11T21:38:13.715Z,64.68
2023-02-11T21:40:40.328Z,71.25
2023-02-11T21:43:06.898Z,85.78
2023-02-11T21:45:33.445Z,59.38
2023-02-11T21:48:00.098Z,113.93
2023-02-11T21:50:26.658Z,81.40
2023-02-11T21:52:53.216Z,98.80
2023-02-11T21:55:19.778Z,105.38
2023-02-11T21:57:46.343Z,87.50
2023-02-11T22:00:13.281Z,86.07
2023-02-11T22:02:39.826Z,91.45
2023-02-11T22:05:06.519Z,108.47
2023-02-11T22:07:35.431Z,85.00
2023-02-11T22:10:03.506Z,77.65
2023-02-11T22:12:30.128Z,67.93
2023-02-11T22:14:56.658Z,57.83
2023-02-11T22:17:23.417Z,53.97
2023-02-11T22:19:50.143Z,55.25
2023-02-11T22:22:18.341Z,50.35
2023-02-11T22:24:47.737Z,56.53
2023-02-11T22:27:14.794Z,52.80
2023-02-11T22:29:41.433Z,53.17
2023-02-11T22:32:08.306Z,60.92
2023-02-11T22:34:34.860Z,62.03
2023-02-11T22:37:02.425Z,59.95
2023-02-11T22:39:29.361Z,60.92
2023-02-11T22:41:56.658Z,63.08
2023-02-11T22:44:24.323Z,44.72
2023-02-11T22:46:51.249Z,54.17
2023-02-11T22:49:18.781Z,49.23
2023-02-11T22:51:45.549Z,48.10
2023-02-11T22:54:14.661Z,55.35
2023-02-11T22:56:41.296Z,47.42
2023-02-11T22:59:10.663Z,46.80
2023-02-11T23:01:37.291Z,54.95
2023-02-11T23:04:04.859Z,49.88
2023-02-11T23:06:31.726Z,56.38
2023-02-11T23:08:58.274Z,53.30
2023-02-11T23:11:26.303Z,46.90
2023-02-11T23:16:20.933Z,35.00
2023-02-11T23:18:48.160Z,38.65
2023-02-11T23:21:16.614Z,34.75
2023-02-11T23:23:43.420Z,40.97
2023-02-11T23:26:11.117Z,39.40
2023-02-11T23:28:38.006Z,37.72
2023-02-11T23:31:24.124Z,38.72
2023-02-11T23:33:51.091Z,41.45
2023-02-11T23:36:18.332Z,38.10
2023-02-11T23:38:44.956Z,43.60
2023-02-11T23:41:11.874Z,38.47
2023-02-11T23:43:38.844Z,42.77
2023-02-11T23:46:05.526Z,35.95
2023-02-11T23:48:32.175Z,38.45
2023-02-11T23:50:58.729Z,34.00
2023-02-11T23:53:25.283Z,35.45
2023-02-11T23:55:51.805Z,29.15
2023-02-11T23:58:18.370Z,23.50
